Time;durP1;ratioP1;P1;durP2;ratioP2;P2;SDS_P1;SDS_P2;PMS_P1;PMS_P2;Temp;Humidity;BMP_temperature;BMP_pressure;BME280_temperature;BME280_humidity;BME280_pressure;Samples;Min_cycle;Max_cycle;Signal;HPM_P1;HPM_P2
2024/01/22 00:01:27;;;;;;;9.65;3.83;;;5.90;99.90;;;;;;6307980;22;20026;-32
2024/01/22 00:03:53;;;;;;;9.68;3.70;;;6.00;99.90;;;;;;6307982;22;20025;-33
2024/01/22 00:06:18;;;;;;;9.45;4.07;;;5.90;99.90;;;;;;6308721;22;20019;-35
2024/01/22 00:08:44;;;;;;;8.05;3.25;;;5.90;99.90;;;;;;6308647;22;20457;-39
2024/01/22 00:11:11;;;;;;;7.38;3.65;;;5.80;99.90;;;;;;6280826;22;20026;-35
2024/01/22 00:13:37;;;;;;;9.43;3.80;;;6.00;99.90;;;;;;6308345;22;20029;-37
2024/01/22 00:16:03;;;;;;;6.30;3.70;;;6.10;99.90;;;;;;6307981;22;20025;-36
2024/01/22 00:18:28;;;;;;;8.02;3.40;;;6.10;99.90;;;;;;6280727;22;20019;-38
2024/01/22 00:20:54;;;;;;;8.15;3.60;;;6.10;99.90;;;;;;6280826;22;20331;-40
2024/01/22 00:23:20;;;;;;;8.13;4.55;;;6.10;99.90;;;;;;6307924;22;20015;-37
2024/01/22 00:25:46;;;;;;;8.07;3.92;;;6.20;99.90;;;;;;6280755;22;20019;-38
2024/01/22 00:28:12;;;;;;;5.00;3.20;;;6.20;99.90;;;;;;6280719;22;20015;-39
2024/01/22 00:30:37;;;;;;;11.30;4.00;;;6.30;99.90;;;;;;6230239;22;20030;-37
2024/01/22 00:33:03;;;;;;;9.52;3.83;;;6.20;99.90;;;;;;6282280;22;20019;-39
2024/01/22 00:35:29;;;;;;;7.55;3.50;;;6.20;99.90;;;;;;6282696;22;20015;-40
2024/01/22 00:37:54;;;;;;;7.03;3.58;;;6.30;99.90;;;;;;6310110;22;20019;-40
2024/01/22 00:40:20;;;;;;;8.20;3.88;;;6.40;99.90;;;;;;6310556;22;20016;-39
2024/01/22 00:42:46;;;;;;;8.32;3.90;;;6.30;99.90;;;;;;6310814;22;20015;-40
2024/01/22 00:45:12;;;;;;;7.28;3.60;;;6.40;99.90;;;;;;6310418;22;20327;-37
2024/01/22 00:47:38;;;;;;;6.18;3.85;;;6.30;99.90;;;;;;6309772;22;20023;-41
2024/01/22 00:50:04;;;;;;;8.32;4.63;;;6.40;99.90;;;;;;6310702;22;20015;-39
2024/01/22 00:52:30;;;;;;;4.72;3.40;;;6.40;99.90;;;;;;6282480;22;20095;-36
2024/01/22 00:54:56;;;;;;;8.38;3.60;;;6.40;99.90;;;;;;6310472;22;20494;-35
2024/01/22 00:57:22;;;;;;;9.98;3.67;;;6.50;99.90;;;;;;6310013;22;20019;-35
2024/01/22 00:59:47;;;;;;;6.75;3.85;;;6.50;99.90;;;;;;6309596;22;20439;-35
2024/01/22 01:02:13;;;;;;;7.72;3.72;;;6.40;99.90;;;;;;6310633;22;20019;-36
2024/01/22 01:04:40;;;;;;;8.60;3.75;;;6.60;99.90;;;;;;6282579;22;20455;-33
2024/01/22 01:07:06;;;;;;;7.18;3.58;;;6.50;99.90;;;;;;6309582;22;20037;-34
2024/01/22 01:09:32;;;;;;;9.07;4.22;;;6.60;99.90;;;;;;6257005;22;20523;-33
2024/01/22 01:11:57;;;;;;;12.68;4.65;;;6.60;99.90;;;;;;6309598;22;20461;-31
2024/01/22 01:14:24;;;;;;;9.07;4.18;;;6.50;99.90;;;;;;6310540;22;20019;-32
2024/01/22 01:16:50;;;;;;;12.15;3.47;;;6.60;99.90;;;;;;6283164;22;20019;-32
2024/01/22 01:19:15;;;;;;;8.48;4.43;;;6.60;99.90;;;;;;6310445;22;20472;-30
2024/01/22 01:21:41;;;;;;;7.03;3.80;;;6.60;99.90;;;;;;6309402;22;20051;-30
2024/01/22 01:24:08;;;;;;;7.93;4.15;;;6.70;99.90;;;;;;6309410;22;20019;-30
2024/01/22 01:26:42;;;;;;;7.35;3.60;;;6.70;99.90;;;;;;6309393;22;20088;-29
2024/01/22 01:29:09;;;;;;;6.47;3.80;;;6.60;99.90;;;;;;6256851;22;20020;-29
2024/01/22 01:31:35;;;;;;;10.07;4.43;;;6.70;99.90;;;;;;6282082;22;20015;-29
2024/01/22 01:34:01;;;;;;;7.43;4.43;;;6.60;99.90;;;;;;6309323;22;20015;-28
2024/01/22 01:36:27;;;;;;;4.90;3.17;;;6.70;99.90;;;;;;6309342;22;20510;-30
2024/01/22 01:38:52;;;;;;;8.52;4.25;;;6.80;99.90;;;;;;6309129;22;20011;-29
2024/01/22 01:41:18;;;;;;;6.07;3.53;;;6.80;99.90;;;;;;6309934;22;20064;-28
2024/01/22 01:43:44;;;;;;;6.85;2.95;;;6.90;99.90;;;;;;6309109;22;20016;-28
2024/01/22 01:46:10;;;;;;;6.90;3.95;;;7.00;99.90;;;;;;6309115;22;20022;-27
2024/01/22 01:48:36;;;;;;;5.80;3.00;;;7.20;99.90;;;;;;6281882;22;20019;-27
2024/01/22 01:51:02;;;;;;;8.23;4.47;;;7.20;99.90;;;;;;6309031;22;20015;-26
2024/01/22 01:53:29;;;;;;;7.50;4.10;;;7.10;99.90;;;;;;6309952;22;20025;-25
2024/01/22 01:55:55;;;;;;;6.25;3.78;;;7.30;99.90;;;;;;6281840;22;20531;-26
2024/01/22 01:58:22;;;;;;;10.48;4.78;;;7.40;99.90;;;;;;6256144;22;20334;-25
2024/01/22 02:00:51;;;;;;;8.70;4.13;;;7.30;99.90;;;;;;6309730;22;20438;-25
2024/01/22 02:03:16;;;;;;;8.88;3.75;;;7.40;99.90;;;;;;6309139;22;20058;-24
2024/01/22 02:05:42;;;;;;;6.80;3.47;;;7.30;99.90;;;;;;6281824;22;20492;-24
2024/01/22 02:08:08;;;;;;;6.82;3.20;;;7.30;99.90;;;;;;6281630;22;20024;-25
2024/01/22 02:10:34;;;;;;;9.13;5.05;;;7.40;99.90;;;;;;6205814;22;20019;-24
2024/01/22 02:13:01;;;;;;;10.15;3.92;;;7.30;99.90;;;;;;6308926;22;20015;-24
2024/01/22 02:15:27;;;;;;;6.63;4.35;;;7.50;99.90;;;;;;6308956;22;20019;-24
2024/01/22 02:17:53;;;;;;;8.07;3.55;;;7.40;99.90;;;;;;6308410;22;20098;-24
2024/01/22 02:20:18;;;;;;;8.63;4.25;;;7.40;99.90;;;;;;6308796;22;20015;-24
2024/01/22 02:22:44;;;;;;;6.85;3.50;;;7.50;99.90;;;;;;6256262;22;20026;-25
2024/01/22 02:25:10;;;;;;;8.75;4.90;;;7.50;99.90;;;;;;6309120;22;20022;-24
2024/01/22 02:27:36;;;;;;;8.70;4.40;;;7.60;99.90;;;;;;6281711;22;20438;-25
2024/01/22 02:30:01;;;;;;;6.38;3.90;;;7.40;99.90;;;;;;6309126;22;20016;-25
2024/01/22 02:32:27;;;;;;;7.90;4.32;;;7.40;99.90;;;;;;6308749;22;20015;-25
2024/01/22 02:34:53;;;;;;;10.77;4.78;;;7.50;99.90;;;;;;6281371;22;20023;-25
2024/01/22 02:37:18;;;;;;;9.07;3.67;;;7.60;99.90;;;;;;6308680;22;20022;-24
2024/01/22 02:39:44;;;;;;;9.73;4.10;;;7.60;99.90;;;;;;6281654;22;20019;-24
2024/01/22 02:42:10;;;;;;;7.57;4.47;;;7.60;99.90;;;;;;6281331;22;20381;-24
2024/01/22 02:44:35;;;;;;;9.55;4.18;;;7.80;99.90;;;;;;6308952;22;20094;-24
2024/01/22 02:47:02;;;;;;;7.10;4.47;;;7.70;99.90;;;;;;6281453;22;20019;-24
2024/01/22 02:49:28;;;;;;;7.40;4.38;;;7.60;99.90;;;;;;6282187;22;20443;-25
2024/01/22 02:51:54;;;;;;;10.10;4.93;;;7.80;99.90;;;;;;6308593;22;20027;-24
2024/01/22 02:54:20;;;;;;;7.45;4.15;;;7.80;99.90;;;;;;6280660;22;20024;-24
2024/01/22 02:56:45;;;;;;;6.07;4.25;;;7.70;99.90;;;;;;6308461;22;20049;-25
2024/01/22 02:59:11;;;;;;;7.70;3.97;;;7.80;99.90;;;;;;6256111;22;20007;-23
2024/01/22 03:01:37;;;;;;;7.90;4.65;;;7.80;99.90;;;;;;6308520;22;20477;-23
2024/01/22 03:04:03;;;;;;;9.00;3.90;;;7.80;99.90;;;;;;6281194;22;20492;-22
2024/01/22 03:06:29;;;;;;;8.57;4.22;;;7.90;99.90;;;;;;6281381;22;20022;-23
2024/01/22 03:08:55;;;;;;;7.03;3.67;;;8.00;99.90;;;;;;6309397;22;20041;-23
2024/01/22 03:11:22;;;;;;;5.45;3.38;;;7.90;99.90;;;;;;6308333;22;20051;-23
2024/01/22 03:13:47;;;;;;;8.50;4.97;;;7.80;99.90;;;;;;6256522;22;20019;-23
2024/01/22 03:16:13;;;;;;;8.07;3.75;;;7.80;99.90;;;;;;6308355;22;20069;-22
2024/01/22 03:18:39;;;;;;;6.28;3.97;;;7.80;99.90;;;;;;6281974;22;20015;-22
2024/01/22 03:21:05;;;;;;;6.70;3.63;;;7.80;99.90;;;;;;6308338;22;20019;-22
2024/01/22 03:23:30;;;;;;;5.75;3.78;;;7.80;99.90;;;;;;6309304;22;20323;-22
2024/01/22 03:25:57;;;;;;;6.65;3.75;;;7.90;99.90;;;;;;6281124;22;20019;-22
2024/01/22 03:28:22;;;;;;;5.53;3.72;;;7.90;99.90;;;;;;6308244;22;20011;-22
2024/01/22 03:30:48;;;;;;;7.72;4.68;;;7.90;99.90;;;;;;6280883;22;20029;-22
2024/01/22 03:33:14;;;;;;;8.80;3.60;;;7.80;99.90;;;;;;6281943;22;20362;-22
2024/01/22 03:35:40;;;;;;;6.30;3.88;;;7.90;99.90;;;;;;6308151;22;20068;-22
2024/01/22 03:38:06;;;;;;;5.25;2.53;;;7.90;99.90;;;;;;6255566;22;20018;-22
2024/01/22 03:40:31;;;;;;;7.55;3.55;;;7.90;99.90;;;;;;6281078;22;20100;-22
2024/01/22 03:42:57;;;;;;;7.28;3.75;;;7.90;99.90;;;;;;6255469;22;20019;-22
2024/01/22 03:45:23;;;;;;;6.78;3.50;;;8.00;99.90;;;;;;6280944;22;20092;-22
2024/01/22 03:47:48;;;;;;;8.48;4.03;;;8.00;99.90;;;;;;6308084;22;20026;-22
2024/01/22 03:50:14;;;;;;;11.38;3.42;;;7.90;99.90;;;;;;6308003;22;20030;-22
2024/01/22 03:52:40;;;;;;;6.38;3.83;;;8.00;99.90;;;;;;6308075;22;20054;-22
2024/01/22 03:55:07;;;;;;;5.45;3.00;;;8.00;99.90;;;;;;6307959;22;20144;-22
2024/01/22 03:57:33;;;;;;;5.15;2.70;;;8.10;99.90;;;;;;6280830;22;20390;-22
2024/01/22 03:59:58;;;;;;;4.47;3.38;;;8.00;99.90;;;;;;6308697;22;20069;-22
2024/01/22 04:02:24;;;;;;;4.22;2.42;;;8.10;99.90;;;;;;6281781;22;20112;-22
2024/01/22 04:04:50;;;;;;;3.92;2.67;;;8.10;99.90;;;;;;6255319;22;20025;-23
2024/01/22 04:07:16;;;;;;;4.03;2.28;;;7.90;99.90;;;;;;6309284;22;20094;-23
2024/01/22 04:09:42;;;;;;;8.80;2.70;;;8.10;99.90;;;;;;6283942;22;20050;-23
2024/01/22 04:12:07;;;;;;;3.08;2.50;;;8.20;99.90;;;;;;6310153;22;20519;-23
2024/01/22 04:14:33;;;;;;;5.45;2.17;;;8.40;99.90;;;;;;6282797;22;20031;-23
2024/01/22 04:16:59;;;;;;;3.83;2.13;;;8.80;99.90;;;;;;6257324;22;20103;-23
2024/01/22 04:19:24;;;;;;;3.90;1.95;;;8.50;99.90;;;;;;6311374;22;20046;-23
2024/01/22 04:21:50;;;;;;;5.28;2.20;;;8.60;99.90;;;;;;6310349;22;20387;-22
2024/01/22 04:24:17;;;;;;;3.22;2.17;;;8.90;99.90;;;;;;6282674;22;20014;-23
2024/01/22 04:26:42;;;;;;;5.30;1.70;;;9.00;99.90;;;;;;6309916;22;20492;-23
2024/01/22 04:29:08;;;;;;;4.32;2.42;;;8.40;99.90;;;;;;6309986;22;20015;-23
2024/01/22 04:31:36;;;;;;;4.13;2.17;;;8.40;99.90;;;;;;6309580;22;20020;-22
2024/01/22 04:34:01;;;;;;;5.45;2.67;;;8.50;99.90;;;;;;6231688;22;20023;-22
2024/01/22 04:36:27;;;;;;;3.10;1.92;;;9.00;99.90;;;;;;6282714;22;20095;-22
2024/01/22 04:38:53;;;;;;;3.90;2.47;;;9.00;99.90;;;;;;6282531;22;20331;-22
2024/01/22 04:41:18;;;;;;;6.40;2.17;;;8.60;99.90;;;;;;6309868;22;20080;-22
2024/01/22 04:43:44;;;;;;;2.70;1.50;;;9.30;99.90;;;;;;6309761;22;20012;-22
2024/01/22 04:46:10;;;;;;;2.67;1.70;;;8.70;99.90;;;;;;6282623;22;20054;-22
2024/01/22 04:48:36;;;;;;;3.80;2.40;;;8.70;99.90;;;;;;6283438;22;20057;-22
2024/01/22 04:51:03;;;;;;;4.03;1.63;;;8.90;99.90;;;;;;6309818;22;20020;-21
2024/01/22 04:53:29;;;;;;;2.38;1.50;;;9.50;99.90;;;;;;6309320;22;20015;-22
2024/01/22 04:55:54;;;;;;;2.33;1.60;;;8.90;99.90;;;;;;6311127;22;20030;-22
2024/01/22 04:58:20;;;;;;;2.13;1.65;;;9.60;99.90;;;;;;6231513;22;20438;-21
2024/01/22 05:00:46;;;;;;;3.38;1.92;;;9.00;99.90;;;;;;6282445;22;20019;-22
2024/01/22 05:03:12;;;;;;;4.80;1.63;;;9.10;99.90;;;;;;6310301;22;20019;-21
2024/01/22 05:05:37;;;;;;;2.67;1.23;;;9.50;99.90;;;;;;6309942;22;20023;-22
2024/01/22 05:08:03;;;;;;;2.38;1.40;;;9.60;99.90;;;;;;6309966;22;20331;-22
2024/01/22 05:10:29;;;;;;;2.70;1.27;;;9.10;99.90;;;;;;6309596;22;20019;-21
2024/01/22 05:12:55;;;;;;;1.92;1.00;;;9.90;99.90;;;;;;6309547;22;20460;-22
2024/01/22 05:15:20;;;;;;;2.28;1.13;;;9.90;99.90;;;;;;6282270;22;20026;-22
2024/01/22 05:17:46;;;;;;;2.90;0.90;;;9.30;99.90;;;;;;6309238;22;20019;-21
2024/01/22 05:20:12;;;;;;;1.63;0.90;;;10.00;99.90;;;;;;6309409;22;20016;-21
2024/01/22 05:22:38;;;;;;;2.20;0.88;;;10.00;99.90;;;;;;6256582;22;20347;-21
2024/01/22 05:25:04;;;;;;;2.33;1.00;;;9.90;99.90;;;;;;6310179;22;20015;-21
2024/01/22 05:27:33;;;;;;;1.25;0.73;;;10.00;99.90;;;;;;6256739;22;20076;-21
2024/01/22 05:29:58;;;;;;;1.13;0.68;;;9.60;99.90;;;;;;6281989;22;20023;-21
2024/01/22 05:32:24;;;;;;;5.65;1.05;;;10.20;99.90;;;;;;6309719;22;20051;-22
2024/01/22 05:34:50;;;;;;;1.67;1.00;;;10.30;99.90;;;;;;6309338;22;20381;-22
2024/01/22 05:37:16;;;;;;;2.70;0.63;;;10.00;99.90;;;;;;6256830;22;20019;-22
2024/01/22 05:39:41;;;;;;;3.17;0.80;;;10.30;99.90;;;;;;6281923;22;20021;-22
2024/01/22 05:42:07;;;;;;;2.53;0.90;;;9.90;99.90;;;;;;6282393;22;20022;-22
2024/01/22 05:44:33;;;;;;;2.10;0.73;;;9.60;99.90;;;;;;6282088;22;20019;-23
2024/01/22 05:46:58;;;;;;;2.75;1.00;;;10.00;99.90;;;;;;6282073;22;20103;-23
2024/01/22 05:49:24;;;;;;;3.40;0.55;;;9.50;99.90;;;;;;6309103;22;20057;-23
2024/01/22 05:51:50;;;;;;;1.10;0.50;;;10.10;99.90;;;;;;6310221;22;20019;-24
2024/01/22 05:54:15;;;;;;;1.70;0.70;;;9.90;99.90;;;;;;6309655;22;20323;-24
2024/01/22 05:56:41;;;;;;;1.73;0.60;;;9.80;99.90;;;;;;6309123;22;20027;-24
2024/01/22 05:59:07;;;;;;;1.50;0.60;;;9.90;99.90;;;;;;6282806;22;20019;-23
2024/01/22 06:01:33;;;;;;;3.25;0.70;;;9.90;99.90;;;;;;6282689;22;20068;-21
2024/01/22 06:04:00;;;;;;;2.95;0.80;;;10.00;99.90;;;;;;6309097;22;20381;-21
2024/01/22 06:06:25;;;;;;;2.05;0.77;;;9.50;99.90;;;;;;6281965;22;20026;-22
2024/01/22 06:08:51;;;;;;;1.35;0.93;;;9.50;99.90;;;;;;6308933;22;20007;-22
2024/01/22 06:11:18;;;;;;;1.80;0.70;;;9.40;99.90;;;;;;6256178;22;20019;-22
2024/01/22 06:13:44;;;;;;;1.58;0.50;;;9.50;99.90;;;;;;6281903;22;20015;-22
2024/01/22 06:16:14;;;;;;;0.88;0.35;;;9.90;99.90;;;;;;6281263;22;20069;-22
2024/01/22 06:18:41;;;;;;;1.73;0.50;;;9.80;99.90;;;;;;6256069;22;20114;-21
2024/01/22 06:21:08;;;;;;;3.95;0.60;;;9.80;99.90;;;;;;6256146;22;20474;-22
2024/01/22 06:23:34;;;;;;;4.22;1.15;;;9.80;99.90;;;;;;6308978;22;20026;-21
2024/01/22 06:26:02;;;;;;;5.72;0.88;;;9.90;99.90;;;;;;6281521;22;20015;-21
2024/01/22 06:28:30;;;;;;;2.95;0.95;;;9.60;99.90;;;;;;6256266;22;20016;-21
2024/01/22 06:30:56;;;;;;;5.43;1.25;;;9.90;99.90;;;;;;6255433;22;20019;-21
2024/01/22 06:33:22;;;;;;;3.40;1.33;;;9.90;99.90;;;;;;6308728;22;20019;-20
2024/01/22 06:35:49;;;;;;;8.23;1.40;;;9.40;99.90;;;;;;6308695;22;20023;-21
2024/01/22 06:38:17;;;;;;;9.07;1.70;;;9.80;99.90;;;;;;6309563;22;20327;-21
2024/01/22 06:40:46;;;;;;;7.20;1.92;;;9.40;99.90;;;;;;6308675;22;20320;-22
2024/01/22 06:43:12;;;;;;;7.00;2.17;;;9.70;99.90;;;;;;6308607;22;20015;-21
2024/01/22 06:45:38;;;;;;;8.23;1.95;;;9.50;99.90;;;;;;6281455;22;20019;-21
2024/01/22 06:48:04;;;;;;;7.97;1.70;;;9.20;99.90;;;;;;6308602;22;20018;-21
2024/01/22 06:50:30;;;;;;;10.70;1.73;;;9.60;99.90;;;;;;6282134;22;20015;-22
2024/01/22 06:52:56;;;;;;;9.95;2.47;;;9.10;99.90;;;;;;6309371;22;20016;-23
2024/01/22 06:55:23;;;;;;;9.90;2.38;;;9.30;99.90;;;;;;6280768;22;20102;-22
2024/01/22 06:57:49;;;;;;;9.70;2.35;;;9.00;99.90;;;;;;6308515;22;20027;-22
2024/01/22 07:00:16;;;;;;;9.30;2.53;;;9.60;99.90;;;;;;6281330;22;20367;-22
2024/01/22 07:02:43;;;;;;;10.98;2.38;;;9.30;99.90;;;;;;6255796;22;20019;-22
2024/01/22 07:05:12;;;;;;;15.07;3.58;;;9.50;99.90;;;;;;6281168;22;20015;-22
2024/01/22 07:07:39;;;;;;;13.07;2.60;;;9.10;99.90;;;;;;6308711;22;20019;-23
2024/01/22 07:10:07;;;;;;;17.58;2.65;;;9.00;99.90;;;;;;6308345;22;20462;-23
2024/01/22 07:12:34;;;;;;;14.63;3.08;;;8.90;99.90;;;;;;6281082;22;20019;-23
2024/01/22 07:15:01;;;;;;;15.32;3.45;;;9.00;99.90;;;;;;6280967;22;20470;-23
2024/01/22 07:17:28;;;;;;;25.80;3.42;;;9.40;99.90;;;;;;6281285;22;20023;-23
2024/01/22 07:19:54;;;;;;;17.08;3.85;;;9.40;99.90;;;;;;6308245;22;20362;-23
2024/01/22 07:22:20;;;;;;;28.38;3.95;;;9.10;99.90;;;;;;6308614;22;20019;-23
2024/01/22 07:24:46;;;;;;;20.40;3.88;;;8.90;99.90;;;;;;6308246;22;20026;-23
2024/01/22 07:27:11;;;;;;;18.38;3.70;;;9.00;99.90;;;;;;6308210;22;20057;-24
2024/01/22 07:29:37;;;;;;;31.48;5.55;;;9.10;99.90;;;;;;6256291;22;20073;-24
2024/01/22 07:32:03;;;;;;;22.77;4.70;;;9.10;99.90;;;;;;6280858;22;20073;-24
2024/01/22 07:34:29;;;;;;;27.13;3.70;;;9.00;99.90;;;;;;6308129;22;20019;-22
2024/01/22 07:36:55;;;;;;;27.85;4.68;;;9.20;99.90;;;;;;6308228;22;20019;-21
2024/01/22 07:39:21;;;;;;;31.42;7.50;;;8.80;99.90;;;;;;6308065;22;20015;-21
2024/01/22 07:41:46;;;;;;;25.92;5.88;;;8.70;99.90;;;;;;6280364;22;20465;-21
2024/01/22 07:44:12;;;;;;;23.80;4.82;;;8.90;99.90;;;;;;6308133;22;20066;-20
2024/01/22 07:46:38;;;;;;;35.10;4.28;;;9.10;99.90;;;;;;6280801;22;20068;-21
2024/01/22 07:49:04;;;;;;;24.88;5.93;;;9.40;99.90;;;;;;6308740;22;20050;-21
2024/01/22 07:51:30;;;;;;;25.23;3.95;;;8.50;99.90;;;;;;6308004;22;20015;-21
2024/01/22 07:53:56;;;;;;;20.35;3.88;;;9.00;99.90;;;;;;6280323;22;20027;-21
2024/01/22 07:56:22;;;;;;;27.27;3.80;;;8.60;99.90;;;;;;6308361;22;20447;-21
2024/01/22 07:58:48;;;;;;;29.05;4.72;;;8.70;99.90;;;;;;6280657;22;20037;-21
2024/01/22 08:01:14;;;;;;;11.20;2.33;;;9.10;99.90;;;;;;6281095;22;20019;-21
2024/01/22 08:03:40;;;;;;;15.27;3.58;;;9.20;99.90;;;;;;6280718;22;20466;-21
2024/01/22 08:06:05;;;;;;;14.45;2.15;;;9.30;99.90;;;;;;6256337;22;20015;-21
2024/01/22 08:08:31;;;;;;;11.43;1.75;;;8.60;99.90;;;;;;6280683;22;20320;-20
2024/01/22 08:10:57;;;;;;;9.80;2.40;;;8.60;99.90;;;;;;6307994;22;20316;-21
2024/01/22 08:13:23;;;;;;;10.90;2.17;;;8.60;99.90;;;;;;6307906;22;20015;-21
2024/01/22 08:15:49;;;;;;;14.73;2.05;;;8.70;99.90;;;;;;6255222;22;20441;-22
2024/01/22 08:18:16;;;;;;;13.68;2.47;;;8.90;99.90;;;;;;6308872;22;20019;-22
2024/01/22 08:20:42;;;;;;;14.65;2.72;;;8.90;99.90;;;;;;6308949;22;20016;-22
2024/01/22 08:23:09;;;;;;;17.75;3.20;;;9.00;99.90;;;;;;6307923;22;20117;-22
2024/01/22 08:25:35;;;;;;;16.15;3.55;;;8.80;99.90;;;;;;6280675;22;20045;-22
2024/01/22 08:28:02;;;;;;;16.75;2.70;;;8.90;99.90;;;;;;6281079;22;20019;-22
2024/01/22 08:30:28;;;;;;;21.65;4.43;;;8.80;99.90;;;;;;6307899;22;20018;-22
2024/01/22 08:32:54;;;;;;;18.48;3.63;;;8.50;99.90;;;;;;6307915;22;20066;-22
2024/01/22 08:35:20;;;;;;;24.52;4.38;;;8.90;99.90;;;;;;6307900;22;20015;-22
2024/01/22 08:37:52;;;;;;;33.58;5.22;;;8.70;99.90;;;;;;6280500;22;20366;-22
2024/01/22 08:40:21;;;;;;;21.50;4.60;;;8.40;99.90;;;;;;6281516;22;20186;-22
2024/01/22 08:42:57;;;;;;;25.80;4.65;;;8.40;99.90;;;;;;6307895;22;20026;-23
2024/01/22 08:45:22;;;;;;;38.13;6.20;;;8.30;99.90;;;;;;6280472;22;20023;-23
2024/01/22 08:47:49;;;;;;;39.70;6.70;;;8.70;99.90;;;;;;6308457;22;20076;-23
2024/01/22 08:50:21;;;;;;;30.42;5.95;;;8.70;99.90;;;;;;6307725;22;20019;-23
2024/01/22 08:52:48;;;;;;;34.50;6.45;;;8.30;99.90;;;;;;6282459;22;20051;-23
2024/01/22 08:55:18;;;;;;;50.47;8.48;;;8.60;99.90;;;;;;6281732;22;20019;-23
2024/01/22 08:57:44;;;;;;;49.05;8.13;;;8.40;99.90;;;;;;6257370;22;20026;-23
2024/01/22 09:00:11;;;;;;;46.08;8.90;;;8.20;99.90;;;;;;6283150;22;20019;-23
2024/01/22 09:02:39;;;;;;;55.38;9.30;;;8.10;99.90;;;;;;6257138;22;20025;-23
2024/01/22 09:05:09;;;;;;;45.50;8.30;;;8.40;99.90;;;;;;6282235;22;20015;-23
2024/01/22 09:07:35;;;;;;;52.70;9.80;;;8.20;99.90;;;;;;6282305;22;20007;-23
2024/01/22 09:10:07;;;;;;;54.47;8.73;;;8.20;99.90;;;;;;6256809;22;20027;-23
2024/01/22 09:12:36;;;;;;;44.55;9.82;;;8.50;99.90;;;;;;6256558;22;20058;-23
2024/01/22 09:15:04;;;;;;;32.33;6.13;;;8.20;99.90;;;;;;6282533;22;20015;-23
2024/01/22 09:17:30;;;;;;;45.42;7.15;;;8.30;99.90;;;;;;6282117;22;20072;-23
2024/01/22 09:19:57;;;;;;;43.47;7.45;;;8.40;99.90;;;;;;6309309;22;20007;-23
2024/01/22 09:22:23;;;;;;;54.78;9.52;;;8.30;99.90;;;;;;6310493;22;20015;-23
2024/01/22 09:24:49;;;;;;;52.63;9.70;;;8.50;99.90;;;;;;6257841;22;20090;-24
2024/01/22 09:27:15;;;;;;;62.60;9.73;;;8.50;99.90;;;;;;6282304;22;20051;-24
2024/01/22 09:29:41;;;;;;;41.42;7.75;;;8.50;99.90;;;;;;6282904;22;20468;-24
2024/01/22 09:32:10;;;;;;;54.47;9.30;;;8.60;99.90;;;;;;6282217;22;20136;-24
2024/01/22 09:34:39;;;;;;;51.38;9.20;;;8.40;99.90;;;;;;6281957;22;20015;-24
2024/01/22 09:37:05;;;;;;;55.83;11.10;;;8.50;99.90;;;;;;6309317;22;20050;-24
2024/01/22 09:39:32;;;;;;;61.97;9.38;;;8.40;99.90;;;;;;6309239;22;20064;-24
2024/01/22 09:41:58;;;;;;;49.38;8.38;;;8.40;99.90;;;;;;6309623;22;20020;-24
2024/01/22 09:44:26;;;;;;;36.80;7.55;;;8.40;99.90;;;;;;6309280;22;20011;-24
2024/01/22 09:46:52;;;;;;;54.97;9.38;;;8.40;99.90;;;;;;6309927;22;20376;-24
2024/01/22 09:49:18;;;;;;;29.92;7.03;;;8.20;99.90;;;;;;6309698;22;20055;-24
2024/01/22 09:51:44;;;;;;;45.10;7.63;;;8.20;99.90;;;;;;6256507;22;20500;-24
2024/01/22 09:54:22;;;;;;;50.05;7.25;;;8.20;99.90;;;;;;6281784;22;20094;-24
2024/01/22 09:56:52;;;;;;;43.85;8.32;;;8.20;99.90;;;;;;6309879;22;20023;-24
2024/01/22 09:59:22;;;;;;;48.53;8.75;;;8.20;99.90;;;;;;6309020;22;20021;-24
2024/01/22 10:01:49;;;;;;;51.70;7.88;;;8.40;99.90;;;;;;6309128;22;20015;-24
2024/01/22 10:04:16;;;;;;;53.15;9.57;;;8.40;99.90;;;;;;6282082;22;20019;-25
2024/01/22 10:06:43;;;;;;;44.58;6.82;;;8.40;99.90;;;;;;6309760;22;20470;-25
2024/01/22 10:09:10;;;;;;;46.40;8.20;;;8.40;99.90;;;;;;6308949;22;20020;-25
2024/01/22 10:11:36;;;;;;;34.97;6.25;;;8.40;99.90;;;;;;6309991;22;20156;-25
2024/01/22 10:14:01;;;;;;;45.45;8.13;;;8.40;99.90;;;;;;6309286;22;20015;-25
2024/01/22 10:16:28;;;;;;;43.10;6.38;;;8.30;99.90;;;;;;6282442;22;20450;-25
2024/01/22 10:19:05;;;;;;;28.70;6.22;;;8.30;99.90;;;;;;6308887;22;20015;-25
2024/01/22 10:21:32;;;;;;;38.28;7.50;;;8.30;99.90;;;;;;6282006;22;20077;-25
2024/01/22 10:24:01;;;;;;;25.73;5.28;;;8.30;99.90;;;;;;6308851;22;20022;-25
2024/01/22 10:26:28;;;;;;;31.25;5.45;;;8.30;99.90;;;;;;6308752;22;20027;-26
2024/01/22 10:28:54;;;;;;;24.13;5.25;;;8.30;99.90;;;;;;6281485;22;20174;-25
2024/01/22 10:31:20;;;;;;;34.03;4.75;;;8.30;99.90;;;;;;6308747;22;20130;-26
2024/01/22 10:33:46;;;;;;;19.60;4.30;;;8.30;99.90;;;;;;6281741;22;20019;-26
2024/01/22 10:36:17;;;;;;;23.80;4.80;;;8.30;99.90;;;;;;6256849;22;20094;-27
2024/01/22 10:38:45;;;;;;;29.23;3.72;;;8.10;99.90;;;;;;6308599;22;20015;-27
2024/01/22 10:41:21;;;;;;;20.92;4.22;;;8.20;99.90;;;;;;6281389;22;20019;-27
2024/01/22 10:43:49;;;;;;;17.75;4.53;;;8.40;99.90;;;;;;6282509;22;20319;-27
2024/01/22 10:46:17;;;;;;;19.48;4.72;;;8.50;99.90;;;;;;6256232;22;20030;-27
2024/01/22 10:48:44;;;;;;;21.25;4.90;;;8.60;99.90;;;;;;6282240;22;20015;-27
2024/01/22 10:51:10;;;;;;;22.35;3.88;;;8.50;99.90;;;;;;6281308;22;20085;-27
2024/01/22 10:53:39;;;;;;;21.75;4.15;;;8.70;99.90;;;;;;6281134;22;20019;-29
2024/01/22 10:56:14;;;;;;;19.13;5.43;;;8.70;99.90;;;;;;6307962;22;20023;-28
2024/01/22 10:58:43;;;;;;;29.45;4.10;;;8.70;99.90;;;;;;6308415;22;20016;-28
2024/01/22 11:01:17;;;;;;;25.85;5.05;;;8.80;99.90;;;;;;6308482;22;20351;-28
2024/01/22 11:03:47;;;;;;;23.33;4.28;;;8.80;99.90;;;;;;6308409;22;20026;-27
2024/01/22 11:06:19;;;;;;;22.70;4.05;;;8.80;99.90;;;;;;6281204;22;20015;-28
2024/01/22 11:08:53;;;;;;;28.77;4.60;;;8.80;99.90;;;;;;6309049;22;20419;-29
2024/01/22 11:11:21;;;;;;;20.45;4.35;;;8.80;99.90;;;;;;6255484;22;20485;-29
2024/01/22 11:13:52;;;;;;;28.75;5.28;;;8.90;99.90;;;;;;6308297;22;20019;-28
2024/01/22 11:16:19;;;;;;;30.48;4.95;;;8.80;99.90;;;;;;6280790;22;20046;-28
2024/01/22 11:18:58;;;;;;;20.15;3.85;;;9.00;99.90;;;;;;6308153;22;20011;-28
2024/01/22 11:21:24;;;;;;;25.42;4.30;;;9.00;99.90;;;;;;6308220;22;20015;-28
2024/01/22 11:24:13;;;;;;;19.45;3.25;;;9.10;99.90;;;;;;6308216;22;20039;-28
2024/01/22 11:27:06;;;;;;;11.65;3.08;;;9.10;99.90;;;;;;6308150;22;20095;-28
2024/01/22 11:29:33;;;;;;;28.42;5.10;;;9.10;99.90;;;;;;6303493;22;20022;-28
2024/01/22 11:32:27;;;;;;;18.05;3.53;;;9.10;99.90;;;;;;6281339;22;20015;-29
2024/01/22 11:34:57;;;;;;;16.05;4.38;;;9.10;99.90;;;;;;6293899;22;20500;-28
2024/01/22 11:37:34;;;;;;;21.15;4.05;;;9.20;99.90;;;;;;6281782;22;20015;-29
2024/01/22 11:40:00;;;;;;;14.88;2.92;;;9.20;99.90;;;;;;6280998;22;20015;-28
2024/01/22 11:42:28;;;;;;;28.58;4.95;;;9.20;99.90;;;;;;6308009;22;20021;-29
2024/01/22 11:44:54;;;;;;;16.17;4.18;;;9.20;99.90;;;;;;6281597;22;20023;-29
2024/01/22 11:47:22;;;;;;;26.00;5.38;;;9.20;99.90;;;;;;6280649;22;20016;-29
2024/01/22 11:49:48;;;;;;;19.50;4.15;;;9.20;99.90;;;;;;6280714;22;20019;-29
2024/01/22 11:52:16;;;;;;;23.13;3.85;;;9.30;99.90;;;;;;6308101;22;20026;-29
2024/01/22 11:54:52;;;;;;;24.35;4.72;;;9.20;99.90;;;;;;6307984;22;20339;-30
2024/01/22 11:57:19;;;;;;;19.50;3.42;;;9.20;99.90;;;;;;6308656;22;20330;-30
2024/01/22 12:00:12;;;;;;;20.42;3.65;;;9.20;99.90;;;;;;6280589;22;20102;-30
2024/01/22 12:02:44;;;;;;;16.33;3.38;;;9.20;99.90;;;;;;6308045;22;20020;-31
2024/01/22 12:05:17;;;;;;;19.30;4.13;;;9.20;99.90;;;;;;6280847;22;20099;-31
2024/01/22 12:07:45;;;;;;;18.35;3.55;;;9.20;99.90;;;;;;6281746;22;20335;-30
2024/01/22 12:10:21;;;;;;;19.42;5.00;;;9.10;99.90;;;;;;6281605;22;20015;-30
2024/01/22 12:12:58;;;;;;;19.10;3.70;;;9.10;99.90;;;;;;6309098;22;20354;-30
2024/01/22 12:15:26;;;;;;;10.23;3.13;;;9.10;99.90;;;;;;6308687;22;20374;-30
2024/01/22 12:17:53;;;;;;;24.80;4.13;;;9.10;99.90;;;;;;6280197;22;20015;-31
2024/01/22 12:20:20;;;;;;;14.32;2.40;;;9.20;99.90;;;;;;6280554;22;20499;-30
2024/01/22 12:23:01;;;;;;;17.23;4.53;;;9.20;99.90;;;;;;6307897;22;20034;-32
2024/01/22 12:25:35;;;;;;;11.50;3.13;;;9.20;99.90;;;;;;6307835;22;20023;-32
2024/01/22 12:28:07;;;;;;;25.52;4.45;;;9.10;99.90;;;;;;6281416;22;20496;-32
2024/01/22 12:30:33;;;;;;;12.73;3.38;;;9.20;99.90;;;;;;6309888;22;20011;-30
2024/01/22 12:32:59;;;;;;;20.60;3.38;;;9.10;99.90;;;;;;6310253;22;20095;-31
2024/01/22 12:35:25;;;;;;;15.95;4.00;;;9.10;99.90;;;;;;6257478;22;20465;-31
2024/01/22 12:37:51;;;;;;;11.63;2.92;;;9.10;99.90;;;;;;6231711;22;20079;-32
2024/01/22 12:40:17;;;;;;;16.30;2.95;;;9.10;99.90;;;;;;6282746;22;20015;-31
2024/01/22 12:42:45;;;;;;;17.50;3.67;;;9.20;99.90;;;;;;6309889;22;20027;-30
2024/01/22 12:45:14;;;;;;;12.07;2.40;;;9.30;99.90;;;;;;6310072;22;20015;-31
2024/01/22 12:47:40;;;;;;;12.50;2.83;;;9.40;99.90;;;;;;6309708;22;20090;-32
2024/01/22 12:50:07;;;;;;;12.50;2.92;;;9.30;99.90;;;;;;6309624;22;20015;-31
2024/01/22 12:52:33;;;;;;;19.23;2.72;;;9.40;99.90;;;;;;6282499;22;20015;-31